createdAt,value
2022-09-16T00:00:47.277Z,389.67
2022-09-16T00:03:35.404Z,397.05
2022-09-16T00:06:26.477Z,379.80
2022-09-16T00:09:14.416Z,392.80
2022-09-16T00:12:02.545Z,375.05
2022-09-16T00:14:50.470Z,398.15
2022-09-16T00:17:38.849Z,376.85
2022-09-16T00:20:26.771Z,406.90
2022-09-16T00:23:15.984Z,368.88
2022-09-16T00:26:05.184Z,391.77
2022-09-16T00:28:53.098Z,359.10
2022-09-16T00:31:41.139Z,395.05
2022-09-16T00:34:29.048Z,395.40
2022-09-16T00:37:16.929Z,398.88
2022-09-16T00:40:07.469Z,371.88
2022-09-16T00:42:55.444Z,375.38
2022-09-16T00:45:46.214Z,382.38
2022-09-16T00:48:35.402Z,386.95
2022-09-16T00:51:25.308Z,391.58
2022-09-16T00:54:13.282Z,368.92
2022-09-16T00:57:04.770Z,355.88
2022-09-16T00:59:55.535Z,356.55
2022-09-16T01:02:45.631Z,384.80
2022-09-16T01:05:34.850Z,357.33
2022-09-16T01:08:22.807Z,370.45
2022-09-16T01:11:10.710Z,393.65
2022-09-16T01:14:21.646Z,376.77
2022-09-16T01:17:14.787Z,388.40
2022-09-16T01:20:38.244Z,361.50
2022-09-16T01:23:54.671Z,367.48
2022-09-16T01:27:21.538Z,367.08
2022-09-16T01:30:22.298Z,347.08
2022-09-16T01:33:19.886Z,359.05
2022-09-16T01:36:23.419Z,374.77
2022-09-16T01:39:23.264Z,375.48
2022-09-16T01:42:22.696Z,376.05
2022-09-16T01:45:18.517Z,388.65
2022-09-16T01:48:17.225Z,357.38
2022-09-16T01:51:13.341Z,376.85
2022-09-16T01:54:07.908Z,374.48
2022-09-16T01:57:03.004Z,386.30
2022-09-16T01:59:55.271Z,398.15
2022-09-16T02:02:48.120Z,369.23
2022-09-16T02:05:46.028Z,386.45
2022-09-16T02:08:39.078Z,381.20
2022-09-16T02:11:27.260Z,393.35
2022-09-16T02:14:19.130Z,387.45
2022-09-16T02:17:10.039Z,370.02
2022-09-16T02:20:03.709Z,382.13
2022-09-16T02:22:58.828Z,389.45
2022-09-16T02:25:50.445Z,402.67
2022-09-16T02:28:43.442Z,390.55
2022-09-16T02:31:36.180Z,375.20
2022-09-16T02:34:29.646Z,395.27
2022-09-16T02:37:20.817Z,381.02
2022-09-16T02:40:15.669Z,390.10
2022-09-16T02:43:04.439Z,357.45
2022-09-16T02:45:59.941Z,399.13
2022-09-16T02:48:57.175Z,409.75
2022-09-16T02:51:55.759Z,384.67
2022-09-16T02:54:51.580Z,408.42
2022-09-16T02:57:41.659Z,385.25
2022-09-16T03:00:33.614Z,386.27
2022-09-16T03:03:22.105Z,365.80
2022-09-16T03:06:19.741Z,361.80
2022-09-16T03:09:10.791Z,387.55
2022-09-16T03:12:17.871Z,372.10
2022-09-16T03:15:29.140Z,366.77
2022-09-16T03:18:28.774Z,362.80
2022-09-16T03:21:22.221Z,375.98
2022-09-16T03:24:16.033Z,364.88
2022-09-16T03:27:10.114Z,379.33
2022-09-16T03:30:04.142Z,368.63
2022-09-16T03:32:57.649Z,375.85
2022-09-16T03:35:49.197Z,371.23
2022-09-16T03:38:39.489Z,378.65
2022-09-16T03:41:29.528Z,382.25
2022-09-16T03:44:17.437Z,373.63
2022-09-16T03:47:05.797Z,382.70
2022-09-16T03:49:55.036Z,374.35
2022-09-16T03:52:42.978Z,399.17
2022-09-16T03:55:30.864Z,396.73
2022-09-16T03:58:18.775Z,391.40
2022-09-16T04:01:06.696Z,388.88
2022-09-16T04:03:54.602Z,378.95
2022-09-16T04:06:43.873Z,388.15
2022-09-16T04:09:31.729Z,396.83
2022-09-16T04:12:19.745Z,387.33
2022-09-16T04:15:08.442Z,380.85
2022-09-16T04:17:56.665Z,386.98
2022-09-16T04:20:45.107Z,378.67
2022-09-16T04:23:34.345Z,384.33
2022-09-16T04:26:22.489Z,385.17
2022-09-16T04:29:10.628Z,398.52
2022-09-16T04:31:58.541Z,390.00
2022-09-16T04:34:46.737Z,390.95
2022-09-16T04:37:34.648Z,384.95
2022-09-16T04:40:23.934Z,373.52
2022-09-16T04:43:11.831Z,392.77
2022-09-16T04:45:59.862Z,401.70
2022-09-16T04:48:48.354Z,401.00
2022-09-16T04:51:36.269Z,408.52
2022-09-16T04:54:24.180Z,389.55
2022-09-16T04:57:13.462Z,399.33
2022-09-16T05:00:01.625Z,376.30
2022-09-16T05:02:49.780Z,365.92
2022-09-16T05:05:37.641Z,368.50
2022-09-16T05:08:25.534Z,362.33
2022-09-16T05:11:15.833Z,388.85
2022-09-16T05:14:07.209Z,368.55
2022-09-16T05:16:55.099Z,387.65
2022-09-16T05:19:42.989Z,367.58
2022-09-16T05:22:30.973Z,356.80
2022-09-16T05:25:19.130Z,367.35
2022-09-16T05:28:07.075Z,380.25
2022-09-16T05:30:56.658Z,377.10
2022-09-16T05:33:47.422Z,389.13
2022-09-16T05:36:37.430Z,369.13
2022-09-16T05:39:26.400Z,380.40
2022-09-16T05:42:14.392Z,374.77
2022-09-16T05:45:02.399Z,372.38
2022-09-16T05:47:52.373Z,374.70
2022-09-16T05:50:40.201Z,364.05
2022-09-16T05:53:30.009Z,376.95
2022-09-16T05:56:20.134Z,379.67
2022-09-16T05:59:08.015Z,386.67
2022-09-16T06:01:56.703Z,374.13
2022-09-16T06:04:46.087Z,383.15
2022-09-16T06:07:33.986Z,375.20
2022-09-16T06:10:21.865Z,374.85
2022-09-16T06:13:09.799Z,368.67
2022-09-16T06:15:58.406Z,367.80
2022-09-16T06:18:46.320Z,371.80
2022-09-16T06:21:35.578Z,366.17
2022-09-16T06:24:23.561Z,395.25
2022-09-16T06:27:11.479Z,374.20
2022-09-16T06:29:59.385Z,390.92
2022-09-16T06:32:47.263Z,376.77
2022-09-16T06:35:36.407Z,381.95
2022-09-16T06:38:25.785Z,368.42
2022-09-16T06:41:14.936Z,368.05
2022-09-16T06:44:03.530Z,371.67
2022-09-16T06:46:51.440Z,365.35
2022-09-16T06:49:39.306Z,359.90
2022-09-16T06:52:28.012Z,374.70
2022-09-16T06:55:17.447Z,365.88
2022-09-16T06:58:05.319Z,379.42
2022-09-16T07:00:53.276Z,373.25
2022-09-16T07:03:43.985Z,386.98
2022-09-16T07:07:04.847Z,370.88
2022-09-16T07:09:41.110Z,383.85
2022-09-16T07:12:30.471Z,392.70
2022-09-16T07:15:18.704Z,365.88
2022-09-16T07:18:06.681Z,345.90
2022-09-16T07:21:01.072Z,340.85
2022-09-16T07:23:49.322Z,331.88
2022-09-16T07:26:37.871Z,344.52
2022-09-16T07:29:27.851Z,365.13
2022-09-16T07:32:15.768Z,370.23
2022-09-16T07:35:04.752Z,375.80
2022-09-16T07:37:53.159Z,377.50
2022-09-16T07:40:41.727Z,395.77
2022-09-16T07:43:30.194Z,390.05
2022-09-16T07:46:20.469Z,382.42
2022-09-16T07:49:10.277Z,413.60
2022-09-16T07:51:58.185Z,388.55
2022-09-16T07:54:47.005Z,409.55
2022-09-16T07:57:34.910Z,389.13
2022-09-16T08:00:23.109Z,368.27
2022-09-16T08:03:12.388Z,370.17
2022-09-16T08:06:01.833Z,345.75
2022-09-16T08:08:52.218Z,349.23
2022-09-16T08:11:40.106Z,344.92
2022-09-16T08:14:27.995Z,364.27
2022-09-16T08:17:16.112Z,318.42
2022-09-16T08:20:07.145Z,310.15
2022-09-16T08:22:57.912Z,296.45
2022-09-16T08:25:47.046Z,316.23
2022-09-16T08:28:45.316Z,310.48
2022-09-16T08:31:39.477Z,296.00
2022-09-16T08:34:27.581Z,292.27
2022-09-16T08:37:16.815Z,301.40
2022-09-16T08:40:06.308Z,274.77
2022-09-16T08:43:04.999Z,296.02
2022-09-16T08:45:57.967Z,303.77
2022-09-16T08:48:54.338Z,285.35
2022-09-16T08:51:42.558Z,288.63
2022-09-16T08:54:38.373Z,284.25
2022-09-16T08:57:32.668Z,265.75
2022-09-16T09:00:20.882Z,296.27
2022-09-16T09:03:18.333Z,296.80
2022-09-16T09:06:19.951Z,279.55
2022-09-16T09:09:20.337Z,298.73
2022-09-16T09:12:16.859Z,298.40
2022-09-16T09:15:14.933Z,284.38
2022-09-16T09:18:21.445Z,290.65
2022-09-16T09:21:21.537Z,294.67
2022-09-16T09:24:24.359Z,318.90
2022-09-16T09:27:16.797Z,307.55
2022-09-16T09:30:14.139Z,289.70
2022-09-16T09:33:41.500Z,272.95
2022-09-16T09:36:37.517Z,266.80
2022-09-16T09:39:40.040Z,243.88
2022-09-16T09:42:32.633Z,250.57
2022-09-16T09:45:27.598Z,267.73
2022-09-16T09:48:20.676Z,230.43
2022-09-16T09:51:17.373Z,235.15
2022-09-16T09:54:17.412Z,246.93
2022-09-16T09:57:11.861Z,248.07
2022-09-16T10:00:07.144Z,235.48
2022-09-16T10:03:05.691Z,227.32
2022-09-16T10:05:53.615Z,241.63
2022-09-16T10:08:46.051Z,227.55
2022-09-16T10:11:34.140Z,224.82
2022-09-16T10:14:30.533Z,218.32
2022-09-16T10:17:20.571Z,225.48
2022-09-16T10:20:35.623Z,213.80
2022-09-16T10:23:29.602Z,209.85
2022-09-16T10:26:22.243Z,227.73
2022-09-16T10:29:17.068Z,229.10
2022-09-16T10:32:09.073Z,223.48
2022-09-16T10:34:58.485Z,213.35
2022-09-16T10:37:51.507Z,228.65
2022-09-16T10:40:41.002Z,231.63
2022-09-16T10:43:31.447Z,243.60
2022-09-16T10:46:20.497Z,229.70
2022-09-16T10:49:12.466Z,245.05
2022-09-16T10:52:10.784Z,232.75
2022-09-16T10:54:58.844Z,222.00
2022-09-16T10:57:47.688Z,216.43
2022-09-16T11:00:45.882Z,225.10
2022-09-16T11:03:54.634Z,223.20
2022-09-16T11:07:01.764Z,192.80
2022-09-16T11:09:58.341Z,200.95
2022-09-16T11:13:12.955Z,195.82
2022-09-16T11:16:24.364Z,204.30
2022-09-16T11:19:19.986Z,229.98
2022-09-16T11:22:21.259Z,210.60
2022-09-16T11:25:39.161Z,212.82
2022-09-16T11:28:46.968Z,200.68
2022-09-16T11:31:44.350Z,202.90
2022-09-16T11:34:44.733Z,190.45
2022-09-16T11:37:39.604Z,189.38
2022-09-16T11:40:35.477Z,189.73
2022-09-16T11:44:02.439Z,178.48
2022-09-16T11:47:02.365Z,174.98
2022-09-16T11:50:07.996Z,183.25
2022-09-16T11:53:27.960Z,178.15
2022-09-16T11:56:25.495Z,181.75
2022-09-16T11:59:21.725Z,204.80
2022-09-16T12:02:24.368Z,254.57
2022-09-16T12:05:19.627Z,262.33
2022-09-16T12:08:22.613Z,298.70
2022-09-16T12:11:19.393Z,325.33
2022-09-16T12:14:15.915Z,332.90
2022-09-16T12:17:10.013Z,326.55
2022-09-16T12:20:00.981Z,341.02
2022-09-16T12:22:54.314Z,374.88
2022-09-16T12:25:46.910Z,416.85
2022-09-16T12:28:38.768Z,399.23
2022-09-16T12:31:31.644Z,404.38
2022-09-16T12:34:24.884Z,404.85
2022-09-16T12:37:28.885Z,382.95
2022-09-16T12:40:24.189Z,392.98
2022-09-16T12:43:28.036Z,366.50
2022-09-16T12:46:44.847Z,380.80
2022-09-16T12:50:02.582Z,383.65
2022-09-16T12:53:35.738Z,360.42
2022-09-16T12:56:39.361Z,359.23
2022-09-16T13:00:04.358Z,376.02
2022-09-16T13:02:54.864Z,386.95
2022-09-16T13:05:47.253Z,399.63
2022-09-16T13:08:35.871Z,399.10
2022-09-16T13:12:16.569Z,398.77
2022-09-16T13:14:39.603Z,356.38
2022-09-16T13:17:30.194Z,373.45
2022-09-16T13:20:21.084Z,345.70
2022-09-16T13:23:16.989Z,342.58
2022-09-16T13:26:07.392Z,328.27
2022-09-16T13:28:57.767Z,317.17
2022-09-16T13:31:48.713Z,295.27
2022-09-16T13:34:36.783Z,308.45
2022-09-16T13:37:27.127Z,303.67
2022-09-16T13:40:22.321Z,320.80
2022-09-16T13:43:14.631Z,290.42
2022-09-16T13:46:08.695Z,307.85
2022-09-16T13:49:05.039Z,308.45
2022-09-16T13:51:53.932Z,315.58
2022-09-16T13:55:09.023Z,360.05
2022-09-16T13:58:07.442Z,385.25
2022-09-16T14:01:05.692Z,365.85
2022-09-16T14:04:02.229Z,348.67
2022-09-16T14:07:08.022Z,344.50
2022-09-16T14:10:01.481Z,361.48
2022-09-16T14:13:01.057Z,369.45
2022-09-16T14:15:52.420Z,366.17
2022-09-16T14:18:46.093Z,368.80
2022-09-16T14:21:34.588Z,373.10
2022-09-16T14:24:22.554Z,412.88
2022-09-16T14:27:20.427Z,413.80
2022-09-16T14:30:16.807Z,412.85
2022-09-16T14:33:07.949Z,383.40
2022-09-16T14:35:57.011Z,418.80
2022-09-16T14:38:49.858Z,402.83
2022-09-16T14:41:40.557Z,396.42
2022-09-16T14:44:36.611Z,421.13
2022-09-16T14:47:47.388Z,414.77
2022-09-16T14:50:40.969Z,368.35
2022-09-16T14:53:36.411Z,395.30
2022-09-16T14:56:26.000Z,390.52
2022-09-16T14:59:15.708Z,400.58
2022-09-16T15:02:07.849Z,399.83
2022-09-16T15:04:58.568Z,394.45
2022-09-16T15:08:09.910Z,390.67
2022-09-16T15:11:00.150Z,384.45
2022-09-16T15:13:48.497Z,389.83
2022-09-16T15:16:43.262Z,375.95
2022-09-16T15:19:35.026Z,385.05
2022-09-16T15:22:24.071Z,380.27
2022-09-16T15:25:21.531Z,391.77
2022-09-16T15:28:17.972Z,402.17
2022-09-16T15:31:07.655Z,394.33
2022-09-16T15:33:56.717Z,391.48
2022-09-16T15:36:45.362Z,388.33
2022-09-16T15:39:35.480Z,391.67
2022-09-16T15:42:24.845Z,360.13
2022-09-16T15:45:17.748Z,370.48
2022-09-16T15:48:12.138Z,333.52
2022-09-16T15:51:05.973Z,333.90
2022-09-16T15:53:57.622Z,341.60
2022-09-16T15:56:54.360Z,329.33
2022-09-16T15:59:48.249Z,332.65
2022-09-16T16:02:41.758Z,324.25
2022-09-16T16:05:32.925Z,341.90
2022-09-16T16:08:40.036Z,341.83
2022-09-16T16:11:28.168Z,353.52
2022-09-16T16:14:16.108Z,372.20
2022-09-16T16:17:15.128Z,372.17
2022-09-16T16:20:03.629Z,359.42
2022-09-16T16:22:53.218Z,337.20
2022-09-16T16:25:41.441Z,380.42
2022-09-16T16:28:29.788Z,371.60
2022-09-16T16:31:19.213Z,380.10
2022-09-16T16:34:08.495Z,383.27
2022-09-16T16:36:56.406Z,404.38
2022-09-16T16:39:45.318Z,380.48
2022-09-16T16:42:33.513Z,398.75
2022-09-16T16:45:22.008Z,391.08
2022-09-16T16:48:10.981Z,375.63
2022-09-16T16:51:03.499Z,383.52
2022-09-16T16:53:52.972Z,374.08
2022-09-16T16:56:41.717Z,381.10
2022-09-16T16:59:29.590Z,394.40
2022-09-16T17:02:17.551Z,388.90
2022-09-16T17:05:06.090Z,392.20
2022-09-16T17:07:55.311Z,399.40
2022-09-16T17:10:44.624Z,377.02
2022-09-16T17:13:32.484Z,370.65
2022-09-16T17:16:22.652Z,386.27
2022-09-16T17:19:11.234Z,349.90
2022-09-16T17:21:59.109Z,359.05
2022-09-16T17:24:48.405Z,357.60
2022-09-16T17:27:36.257Z,364.80
2022-09-16T17:30:24.162Z,348.52
2022-09-16T17:33:12.077Z,365.58
2022-09-16T17:36:04.960Z,354.92
2022-09-16T17:38:57.365Z,374.45
2022-09-16T17:41:48.635Z,357.42
2022-09-16T17:44:36.563Z,336.77
2022-09-16T17:47:24.834Z,351.35
2022-09-16T17:50:12.808Z,342.38
2022-09-16T17:53:00.667Z,331.10
2022-09-16T17:55:48.664Z,355.33
2022-09-16T17:58:39.814Z,326.47
2022-09-16T18:01:28.330Z,341.60
2022-09-16T18:04:16.193Z,330.00
2022-09-16T18:07:04.102Z,349.73
2022-09-16T18:09:52.031Z,336.07
2022-09-16T18:12:39.995Z,330.90
2022-09-16T18:15:29.516Z,328.03
2022-09-16T18:18:18.217Z,329.50
2022-09-16T18:21:08.083Z,323.23
2022-09-16T18:23:57.708Z,341.93
2022-09-16T18:26:45.990Z,315.90
2022-09-16T18:29:33.843Z,329.17
2022-09-16T18:32:23.047Z,328.97
2022-09-16T18:35:12.445Z,318.40
2022-09-16T18:38:00.321Z,322.73
2022-09-16T18:40:48.277Z,309.87
2022-09-16T18:43:37.075Z,312.53
2022-09-16T18:46:27.110Z,338.27
2022-09-16T18:49:18.068Z,322.10
2022-09-16T18:52:05.935Z,308.17
2022-09-16T18:54:53.860Z,320.53
2022-09-16T18:57:41.835Z,311.70
2022-09-16T19:00:29.755Z,313.73
2022-09-16T19:03:17.651Z,316.60
2022-09-16T19:06:07.396Z,327.07
2022-09-16T19:08:55.512Z,315.27
2022-09-16T19:11:44.098Z,315.67
2022-09-16T19:14:31.961Z,330.00
2022-09-16T19:17:19.977Z,315.33
2022-09-16T19:20:08.332Z,316.07
2022-09-16T19:22:57.583Z,316.63
2022-09-16T19:25:45.433Z,324.37
2022-09-16T19:28:33.345Z,319.13
2022-09-16T19:31:21.786Z,293.27
2022-09-16T19:34:10.272Z,310.07
2022-09-16T19:36:58.173Z,307.13
2022-09-16T19:39:47.849Z,325.17
2022-09-16T19:42:35.732Z,325.97
2022-09-16T19:45:27.779Z,337.73
2022-09-16T19:48:15.964Z,305.50
2022-09-16T19:51:03.964Z,317.83
2022-09-16T19:53:53.222Z,317.67
2022-09-16T19:56:45.905Z,324.03
2022-09-16T19:59:36.233Z,299.13
2022-09-16T20:02:24.411Z,317.50
2022-09-16T20:05:13.047Z,323.60
2022-09-16T20:08:00.962Z,336.07
2022-09-16T20:10:48.895Z,308.87
2022-09-16T20:13:38.955Z,316.07
2022-09-16T20:16:30.485Z,314.03
2022-09-16T20:19:20.220Z,303.50
2022-09-16T20:22:08.244Z,317.07
2022-09-16T20:25:12.432Z,301.30
2022-09-16T20:28:04.174Z,286.00
2022-09-16T20:30:53.442Z,307.53
2022-09-16T20:33:41.787Z,306.13
2022-09-16T20:36:31.340Z,311.70
2022-09-16T20:39:19.435Z,314.17
2022-09-16T20:42:07.610Z,318.63
2022-09-16T20:44:55.469Z,322.40
2022-09-16T20:47:44.682Z,300.50
2022-09-16T20:50:32.573Z,300.27
2022-09-16T20:53:20.425Z,316.77
2022-09-16T20:56:11.079Z,298.53
2022-09-16T20:58:59.576Z,310.43
2022-09-16T21:01:48.305Z,294.93
2022-09-16T21:04:37.605Z,317.93
2022-09-16T21:07:25.509Z,303.57
2022-09-16T21:10:13.435Z,285.27
2022-09-16T21:13:01.296Z,298.83
2022-09-16T21:15:56.034Z,294.00
2022-09-16T21:18:44.437Z,300.77
2022-09-16T21:21:33.665Z,305.87
2022-09-16T21:24:21.735Z,295.73
2022-09-16T21:27:10.154Z,311.10
2022-09-16T21:29:58.327Z,287.77
2022-09-16T21:32:46.214Z,291.93
2022-09-16T21:35:34.061Z,282.27
2022-09-16T21:38:24.532Z,285.13
2022-09-16T21:41:15.077Z,269.37
2022-09-16T21:44:03.804Z,276.60
2022-09-16T21:46:51.712Z,286.43
2022-09-16T21:49:40.368Z,294.27
2022-09-16T21:52:28.467Z,282.63
2022-09-16T21:55:17.708Z,292.57
2022-09-16T21:58:05.582Z,276.23
2022-09-16T22:00:53.527Z,288.43
2022-09-16T22:03:43.102Z,273.40
2022-09-16T22:06:31.466Z,288.93
2022-09-16T22:09:19.688Z,296.97
2022-09-16T22:12:08.968Z,289.53
2022-09-16T22:14:56.815Z,275.03
2022-09-16T22:17:46.958Z,283.37
2022-09-16T22:20:38.210Z,281.87
2022-09-16T22:23:26.273Z,280.87
2022-09-16T22:26:16.020Z,290.77
2022-09-16T22:29:06.266Z,271.73
2022-09-16T22:31:54.213Z,268.33
2022-09-16T22:34:42.165Z,271.20
2022-09-16T22:37:30.044Z,270.37
2022-09-16T22:40:18.370Z,281.20
2022-09-16T22:43:06.306Z,285.67
2022-09-16T22:45:55.683Z,267.70
2022-09-16T22:48:44.047Z,260.53
2022-09-16T22:51:32.477Z,275.67
2022-09-16T22:54:20.393Z,278.00
2022-09-16T22:57:08.300Z,272.97
2022-09-16T22:59:56.171Z,282.00
2022-09-16T23:02:45.369Z,265.83
2022-09-16T23:05:33.225Z,275.83
2022-09-16T23:08:21.164Z,278.60
2022-09-16T23:11:11.586Z,272.87
2022-09-16T23:14:00.145Z,253.50
2022-09-16T23:16:48.911Z,272.13
2022-09-16T23:19:38.146Z,268.73
2022-09-16T23:22:26.051Z,291.93
2022-09-16T23:25:13.973Z,279.27
2022-09-16T23:28:02.092Z,265.53
2022-09-16T23:30:50.518Z,266.80
2022-09-16T23:33:38.548Z,255.77
2022-09-16T23:36:29.311Z,265.63
2022-09-16T23:39:17.832Z,294.80
2022-09-16T23:42:05.979Z,258.07
2022-09-16T23:44:53.868Z,275.43
2022-09-16T23:47:41.717Z,261.00
2022-09-16T23:50:29.587Z,259.10
2022-09-16T23:53:18.772Z,281.37
2022-09-16T23:56:07.586Z,260.17
2022-09-16T23:59:00.145Z,266.53
